Time;durP1;ratioP1;P1;durP2;ratioP2;P2;SDS_P1;SDS_P2;PMS_P1;PMS_P2;Temp;Humidity;BMP_temperature;BMP_pressure;BME280_temperature;BME280_humidity;BME280_pressure;Samples;Min_cycle;Max_cycle;Signal;HPM_P1;HPM_P2
2021/12/31 00:00:18;;;;;;;8.57;7.00;;;;;;;9.71;72.95;100070.47;5091759;28;20190;-56
2021/12/31 00:02:45;;;;;;;8.23;6.93;;;;;;;9.68;73.26;100078.06;5092173;28;20557;-56
2021/12/31 00:05:12;;;;;;;9.53;7.03;;;;;;;9.63;73.31;100074.50;5109610;28;20596;-56
2021/12/31 00:07:39;;;;;;;10.50;7.80;;;;;;;9.67;73.35;100073.75;5112829;28;20194;-56
2021/12/31 00:10:07;;;;;;;8.80;7.03;;;;;;;9.65;73.28;100087.38;5107757;28;20205;-56
2021/12/31 00:12:35;;;;;;;10.03;6.70;;;;;;;9.70;73.41;100083.22;5105964;28;20206;-56
2021/12/31 00:15:02;;;;;;;9.27;7.60;;;;;;;9.72;73.29;100095.31;5112645;28;20273;-56
2021/12/31 00:17:31;;;;;;;12.10;8.17;;;;;;;9.70;73.76;100089.25;5112969;28;20198;-56
2021/12/31 00:20:04;;;;;;;8.43;7.17;;;;;;;9.65;73.61;100090.81;5113162;28;20201;-56
2021/12/31 00:22:56;;;;;;;10.77;8.00;;;;;;;9.64;73.65;100095.91;5112690;28;20190;-57
2021/12/31 00:25:23;;;;;;;7.73;6.80;;;;;;;9.61;74.08;100094.13;5112151;28;20225;-56
2021/12/31 00:27:51;;;;;;;8.40;7.23;;;;;;;9.57;74.23;100084.59;5097151;28;20245;-56
2021/12/31 00:30:18;;;;;;;9.97;7.77;;;;;;;9.51;74.37;100092.09;5092878;28;20186;-56
2021/12/31 00:32:47;;;;;;;7.70;6.90;;;;;;;9.51;74.01;100094.66;5091348;28;20202;-56
2021/12/31 00:35:14;;;;;;;9.37;7.33;;;;;;;9.32;74.57;100062.47;5094140;28;20745;-57
2021/12/31 00:37:41;;;;;;;8.73;7.10;;;;;;;9.45;74.67;100086.75;5091788;28;20270;-57
2021/12/31 00:40:11;;;;;;;8.87;7.93;;;;;;;9.46;74.32;100091.09;5091690;28;20197;-57
2021/12/31 00:42:38;;;;;;;8.63;6.90;;;;;;;9.45;74.67;100089.34;5091509;28;20600;-56
2021/12/31 00:45:09;;;;;;;9.10;7.77;;;;;;;9.43;74.95;100091.00;5096603;28;20199;-57
2021/12/31 00:47:36;;;;;;;10.53;8.03;;;;;;;9.45;74.69;100081.63;5071354;28;20640;-56
2021/12/31 00:50:06;;;;;;;10.27;8.60;;;;;;;9.44;74.78;100075.66;5078074;28;20201;-57
2021/12/31 00:52:34;;;;;;;10.15;9.07;;;;;;;9.50;74.79;100087.81;5092299;28;20519;-56
2021/12/31 00:55:01;;;;;;;14.37;8.77;;;;;;;9.54;74.71;100079.34;5090634;28;20191;-56
2021/12/31 00:57:28;;;;;;;10.53;8.60;;;;;;;9.51;74.45;100071.56;5091036;28;20269;-56
2021/12/31 00:59:54;;;;;;;9.60;8.60;;;;;;;9.37;74.98;100075.41;5091180;28;20365;-58
2021/12/31 01:02:24;;;;;;;10.93;9.82;;;;;;;9.41;75.36;100077.25;5088123;28;20428;-57
2021/12/31 01:04:51;;;;;;;10.20;8.60;;;;;;;9.41;75.29;100072.13;5090418;28;20218;-59
2021/12/31 01:07:20;;;;;;;10.90;8.87;;;;;;;9.44;74.90;100075.66;5090593;28;20207;-60
2021/12/31 01:09:46;;;;;;;12.97;9.47;;;;;;;9.47;75.14;100068.06;5090650;28;20197;-60
2021/12/31 01:12:14;;;;;;;10.70;8.83;;;;;;;9.40;75.30;100066.13;5090806;28;20210;-60
2021/12/31 01:14:53;;;;;;;11.13;8.07;;;;;;;9.39;75.31;100055.84;5091198;28;20274;-59
2021/12/31 01:17:25;;;;;;;9.73;8.67;;;;;;;9.36;75.47;100043.78;5091117;28;20187;-59
2021/12/31 01:19:52;;;;;;;10.00;8.97;;;;;;;9.30;75.88;100047.84;5091252;28;20183;-60
2021/12/31 01:22:27;;;;;;;9.03;8.13;;;;;;;9.26;76.37;100053.69;5091205;28;20191;-60
2021/12/31 01:24:54;;;;;;;10.83;8.30;;;;;;;9.15;76.77;100039.69;5091148;28;20280;-60
2021/12/31 01:27:21;;;;;;;11.33;9.10;;;;;;;9.07;77.32;100041.16;5090946;28;20218;-59
2021/12/31 01:29:48;;;;;;;10.07;9.07;;;;;;;9.06;77.40;100057.38;5090602;28;20442;-58
2021/12/31 01:32:15;;;;;;;9.50;8.50;;;;;;;8.99;77.58;100047.72;5090719;28;20194;-59
2021/12/31 01:34:42;;;;;;;9.77;8.20;;;;;;;8.93;77.72;100043.28;5090588;28;20226;-59
2021/12/31 01:37:10;;;;;;;10.33;8.43;;;;;;;8.94;77.91;100045.03;5090708;28;20570;-59
2021/12/31 01:39:39;;;;;;;9.63;8.20;;;;;;;8.85;78.17;100037.94;5090661;28;20228;-59
2021/12/31 01:42:10;;;;;;;11.57;8.77;;;;;;;8.78;78.30;100042.81;5090734;28;20281;-58
2021/12/31 01:44:40;;;;;;;10.83;8.23;;;;;;;8.81;78.69;100036.09;5090316;28;20262;-59
2021/12/31 01:47:13;;;;;;;8.97;7.20;;;;;;;8.74;78.58;100036.72;5090902;28;20226;-58
2021/12/31 01:49:42;;;;;;;9.17;7.70;;;;;;;8.73;78.66;100041.81;5090585;28;20221;-59
2021/12/31 01:52:11;;;;;;;9.27;7.70;;;;;;;8.75;78.43;100043.59;5090507;28;20191;-59
2021/12/31 01:54:39;;;;;;;8.67;7.03;;;;;;;8.76;78.44;100040.19;5090482;28;20219;-59
2021/12/31 01:57:10;;;;;;;10.10;7.17;;;;;;;8.60;78.52;100017.47;5090369;28;20201;-59
2021/12/31 01:59:39;;;;;;;8.10;6.97;;;;;;;8.74;78.73;100041.84;5090744;28;20561;-58
2021/12/31 02:02:07;;;;;;;7.80;6.80;;;;;;;8.72;78.34;100038.38;5090425;28;20193;-59
2021/12/31 02:04:37;;;;;;;10.00;7.33;;;;;;;8.63;78.56;100032.94;5090539;28;20338;-59
2021/12/31 02:07:05;;;;;;;8.43;7.43;;;;;;;8.68;78.75;100036.50;5090553;28;20275;-59
2021/12/31 02:09:36;;;;;;;9.40;8.10;;;;;;;8.70;78.83;100029.78;5089625;28;20436;-59
2021/12/31 02:12:06;;;;;;;9.07;7.37;;;;;;;8.76;78.29;100037.63;5090380;28;20204;-58
2021/12/31 02:14:34;;;;;;;8.67;7.53;;;;;;;8.72;78.38;100025.56;5090226;28;20191;-59
2021/12/31 02:17:04;;;;;;;9.27;7.30;;;;;;;8.65;78.47;100033.84;5093271;28;20193;-59
2021/12/31 02:19:31;;;;;;;9.90;8.23;;;;;;;8.66;79.18;100030.47;5094022;28;20432;-59
2021/12/31 02:22:00;;;;;;;10.00;8.27;;;;;;;8.70;78.52;100022.09;5094624;28;20201;-59
2021/12/31 02:24:27;;;;;;;8.93;7.80;;;;;;;8.61;78.76;100011.53;5094453;28;20554;-59
2021/12/31 02:26:54;;;;;;;9.60;7.73;;;;;;;8.68;78.76;100028.81;5094467;28;20224;-58
2021/12/31 02:29:23;;;;;;;10.13;8.00;;;;;;;8.65;78.74;100022.75;5094160;28;20199;-57
2021/12/31 02:31:50;;;;;;;9.03;7.90;;;;;;;8.65;78.94;100021.03;5094361;28;20197;-56
2021/12/31 02:34:17;;;;;;;9.03;7.50;;;;;;;8.59;79.14;100030.25;5093852;28;20236;-56
2021/12/31 02:36:44;;;;;;;8.83;7.63;;;;;;;8.58;79.17;100039.59;5094225;28;20213;-56
2021/12/31 02:39:12;;;;;;;10.30;8.37;;;;;;;8.54;79.29;100047.16;5094326;28;20662;-56
2021/12/31 02:41:39;;;;;;;9.13;7.60;;;;;;;8.52;79.53;100054.75;5094045;28;20638;-56
2021/12/31 02:44:06;;;;;;;8.87;7.23;;;;;;;8.48;79.73;100067.44;5093851;28;20190;-56
2021/12/31 02:46:33;;;;;;;8.23;7.20;;;;;;;8.39;80.06;100073.09;5093800;28;20225;-56
2021/12/31 02:49:00;;;;;;;9.27;7.67;;;;;;;8.34;80.37;100074.66;5093871;28;20204;-57
2021/12/31 02:51:29;;;;;;;9.00;8.10;;;;;;;8.32;80.49;100081.41;5094111;28;20206;-57
2021/12/31 02:53:57;;;;;;;9.50;8.10;;;;;;;8.31;80.46;100084.78;5094060;28;20198;-57
2021/12/31 02:56:25;;;;;;;10.87;8.87;;;;;;;8.28;80.70;100087.22;5093951;28;20305;-57
2021/12/31 02:58:53;;;;;;;10.50;9.03;;;;;;;8.26;80.83;100070.91;5093936;28;20197;-57
2021/12/31 03:01:20;;;;;;;10.80;8.70;;;;;;;8.26;80.95;100068.34;5093735;28;20215;-57
2021/12/31 03:03:49;;;;;;;12.93;8.40;;;;;;;8.17;81.13;100070.59;5093726;28;20198;-57
2021/12/31 03:06:18;;;;;;;10.20;8.60;;;;;;;8.13;81.23;100069.59;5093378;28;20228;-57
2021/12/31 03:08:48;;;;;;;9.93;8.87;;;;;;;8.07;81.49;100071.09;5093685;28;20208;-57
2021/12/31 03:11:18;;;;;;;11.03;8.47;;;;;;;8.09;81.34;100072.00;5093681;28;20198;-57
2021/12/31 03:13:51;;;;;;;10.80;8.37;;;;;;;8.11;81.44;100085.72;5093405;28;20202;-57
2021/12/31 03:16:20;;;;;;;9.70;8.37;;;;;;;8.08;81.59;100093.28;5093445;28;20694;-57
2021/12/31 03:18:48;;;;;;;10.13;9.03;;;;;;;8.04;81.65;100088.91;5093305;28;20198;-57
2021/12/31 03:21:21;;;;;;;11.50;8.73;;;;;;;8.02;81.78;100085.44;5093359;28;20388;-57
2021/12/31 03:23:49;;;;;;;9.23;8.20;;;;;;;8.02;81.83;100093.09;5093448;28;20281;-57
2021/12/31 03:26:16;;;;;;;9.33;8.17;;;;;;;8.00;81.62;100097.28;5092863;28;20279;-57
2021/12/31 03:28:43;;;;;;;11.07;8.63;;;;;;;8.00;81.38;100092.16;5093038;28;20281;-59
2021/12/31 03:31:11;;;;;;;9.77;8.17;;;;;;;7.90;81.35;100106.31;5092914;28;20285;-59
2021/12/31 03:33:38;;;;;;;9.93;7.27;;;;;;;7.82;81.43;100100.06;5092978;28;20704;-59
2021/12/31 03:36:05;;;;;;;9.30;7.43;;;;;;;7.81;81.91;100107.66;5092874;28;20208;-60
2021/12/31 03:38:32;;;;;;;8.63;7.30;;;;;;;7.75;81.79;100113.41;5092873;28;20199;-59
2021/12/31 03:40:59;;;;;;;9.13;7.27;;;;;;;7.65;82.01;100114.78;5092620;28;20197;-59
2021/12/31 03:43:26;;;;;;;8.47;7.57;;;;;;;7.68;82.22;100116.56;5092672;28;20193;-59
2021/12/31 03:45:53;;;;;;;10.63;8.03;;;;;;;7.57;82.30;100118.72;5092908;28;20324;-60
2021/12/31 03:48:22;;;;;;;11.47;7.57;;;;;;;7.55;82.67;100122.03;5092645;28;20744;-59
2021/12/31 03:50:50;;;;;;;9.20;7.87;;;;;;;7.54;82.46;100104.94;5092599;28;20319;-59
2021/12/31 03:53:17;;;;;;;8.80;7.90;;;;;;;7.50;82.77;100116.72;5092704;28;20755;-59
2021/12/31 03:55:44;;;;;;;8.77;7.57;;;;;;;7.44;82.75;100120.75;5092869;28;20191;-57
2021/12/31 03:58:12;;;;;;;8.33;7.53;;;;;;;7.42;82.82;100125.78;5092749;28;20581;-59
2021/12/31 04:00:39;;;;;;;10.87;7.50;;;;;;;7.43;82.82;100137.78;5092427;28;20555;-59
2021/12/31 04:03:07;;;;;;;10.40;8.10;;;;;;;7.27;82.80;100111.56;5092586;28;20194;-59
2021/12/31 04:05:37;;;;;;;10.27;7.67;;;;;;;7.38;82.90;100120.50;5092644;28;20189;-59
2021/12/31 04:08:04;;;;;;;9.40;8.38;;;;;;;7.44;82.53;100146.31;5091745;28;20452;-59
2021/12/31 04:10:31;;;;;;;10.87;8.03;;;;;;;7.49;82.69;100138.03;5092437;28;20217;-56
2021/12/31 04:12:58;;;;;;;9.90;7.33;;;;;;;7.49;82.36;100126.91;5092421;28;20196;-56
2021/12/31 04:15:25;;;;;;;9.33;7.77;;;;;;;7.45;82.54;100128.47;5092367;28;20198;-56
2021/12/31 04:17:52;;;;;;;10.73;9.00;;;;;;;7.30;82.46;100096.34;5091985;28;20462;-56
2021/12/31 04:20:24;;;;;;;8.40;7.60;;;;;;;7.46;82.66;100122.56;5092452;28;20200;-56
2021/12/31 04:22:54;;;;;;;9.07;7.53;;;;;;;7.42;82.84;100118.13;5092173;28;20656;-56
2021/12/31 04:25:22;;;;;;;8.43;7.30;;;;;;;7.43;82.75;100117.31;5091902;28;20203;-58
2021/12/31 04:27:50;;;;;;;8.37;7.40;;;;;;;7.43;82.70;100119.88;5092064;28;20216;-58
2021/12/31 04:30:18;;;;;;;8.80;7.43;;;;;;;7.41;82.55;100115.53;5091834;28;20198;-58
2021/12/31 04:32:45;;;;;;;8.17;6.87;;;;;;;7.44;82.61;100142.09;5091794;28;20189;-58
2021/12/31 04:35:12;;;;;;;10.90;6.67;;;;;;;7.47;82.63;100149.00;5091989;28;20277;-58
2021/12/31 04:37:41;;;;;;;8.53;7.37;;;;;;;7.43;82.83;100148.00;5091813;28;20183;-58
2021/12/31 04:40:11;;;;;;;8.97;7.43;;;;;;;7.51;82.37;100141.50;5091056;28;20288;-58
2021/12/31 04:42:40;;;;;;;7.20;6.50;;;;;;;7.49;81.83;100152.47;5091796;28;20193;-59
2021/12/31 04:45:08;;;;;;;7.43;6.63;;;;;;;7.44;82.15;100152.31;5091795;28;20281;-59
2021/12/31 04:47:35;;;;;;;9.35;8.13;;;;;;;7.53;82.16;100157.75;5090519;28;20530;-58
2021/12/31 04:50:02;;;;;;;9.80;7.57;;;;;;;7.55;82.40;100162.94;5091826;28;20551;-58
2021/12/31 04:52:29;;;;;;;7.67;6.97;;;;;;;7.57;81.92;100167.31;5091705;28;20296;-59
2021/12/31 04:54:56;;;;;;;10.80;7.00;;;;;;;7.58;81.78;100151.13;5091367;28;20207;-59
2021/12/31 04:57:26;;;;;;;7.27;6.57;;;;;;;7.47;81.86;100160.06;5091475;28;20727;-58
2021/12/31 04:59:53;;;;;;;7.83;6.73;;;;;;;7.50;81.69;100169.53;5091310;28;20280;-58
2021/12/31 05:02:20;;;;;;;8.40;7.03;;;;;;;7.49;81.99;100167.81;5091424;28;20193;-59
2021/12/31 05:04:47;;;;;;;7.90;6.23;;;;;;;7.40;82.05;100160.66;5091203;28;20563;-59
2021/12/31 05:07:14;;;;;;;9.00;7.57;;;;;;;7.42;82.31;100169.25;5091632;28;20225;-58
2021/12/31 05:09:40;;;;;;;8.17;7.03;;;;;;;7.43;82.01;100167.56;5091129;28;20195;-59
2021/12/31 05:12:14;;;;;;;10.23;7.43;;;;;;;7.43;81.97;100172.69;5091198;28;20188;-59
2021/12/31 05:14:42;;;;;;;9.53;7.13;;;;;;;7.29;82.15;100135.47;5091486;28;20255;-59
2021/12/31 05:17:09;;;;;;;8.73;7.10;;;;;;;7.52;82.01;100181.59;5091070;28;20200;-59
2021/12/31 05:19:36;;;;;;;9.13;7.57;;;;;;;7.48;82.42;100176.28;5091048;28;20194;-59
2021/12/31 05:22:04;;;;;;;8.27;7.07;;;;;;;7.47;82.05;100175.41;5090995;28;20207;-59
2021/12/31 05:24:31;;;;;;;8.67;7.07;;;;;;;7.46;82.12;100173.69;5091250;28;20216;-59
2021/12/31 05:26:58;;;;;;;10.23;7.03;;;;;;;7.46;82.35;100180.47;5090832;28;20217;-59
2021/12/31 05:29:24;;;;;;;9.47;7.53;;;;;;;7.46;82.26;100185.59;5090951;28;20192;-59
2021/12/31 05:31:53;;;;;;;9.37;7.50;;;;;;;7.41;82.93;100176.88;5090935;28;20232;-59
2021/12/31 05:34:20;;;;;;;10.10;7.87;;;;;;;7.40;82.75;100177.69;5090762;28;20234;-59
2021/12/31 05:36:48;;;;;;;10.75;9.35;;;;;;;7.40;82.92;100175.13;5090133;28;20447;-59
2021/12/31 05:39:15;;;;;;;8.97;7.50;;;;;;;7.40;82.90;100173.44;5090671;28;20638;-59
2021/12/31 05:41:42;;;;;;;11.53;8.17;;;;;;;7.45;82.50;100171.94;5090525;28;20187;-59
2021/12/31 05:44:09;;;;;;;8.33;6.90;;;;;;;7.48;82.64;100160.94;5090747;28;20225;-59
2021/12/31 05:46:37;;;;;;;9.77;7.67;;;;;;;7.43;82.91;100152.22;5090638;28;20724;-60
2021/12/31 05:49:05;;;;;;;11.07;7.33;;;;;;;7.42;82.63;100158.16;5090305;28;20197;-59
2021/12/31 05:51:32;;;;;;;8.83;7.53;;;;;;;7.52;82.46;100173.94;5089938;28;20201;-59
2021/12/31 05:53:59;;;;;;;11.73;8.40;;;;;;;7.30;82.63;100147.47;5090520;28;20198;-59
2021/12/31 05:56:26;;;;;;;10.37;7.87;;;;;;;7.51;82.34;100171.28;5090598;28;20190;-60
2021/12/31 05:58:53;;;;;;;9.77;7.93;;;;;;;7.51;82.02;100166.19;5090488;28;20201;-60
2021/12/31 06:01:20;;;;;;;10.50;8.07;;;;;;;7.55;82.20;100163.78;5090619;28;20577;-59
2021/12/31 06:03:47;;;;;;;9.97;7.77;;;;;;;7.55;82.21;100161.25;5090025;28;20208;-56
2021/12/31 06:06:15;;;;;;;11.32;9.48;;;;;;;7.56;81.79;100163.00;5089567;28;20527;-57
2021/12/31 06:08:42;;;;;;;10.47;8.40;;;;;;;7.56;81.94;100163.00;5090528;28;20225;-56
2021/12/31 06:11:10;;;;;;;10.67;8.47;;;;;;;7.59;81.32;100164.78;5090100;28;20197;-56
2021/12/31 06:13:37;;;;;;;11.27;8.27;;;;;;;7.57;81.39;100154.53;5090368;28;20202;-56
2021/12/31 06:16:06;;;;;;;10.18;9.00;;;;;;;7.56;81.61;100150.22;5089854;28;20512;-56
2021/12/31 06:18:33;;;;;;;9.37;7.73;;;;;;;7.64;81.57;100153.94;5089585;28;20309;-56
2021/12/31 06:21:00;;;;;;;11.90;8.80;;;;;;;7.60;81.34;100146.97;5089322;28;20192;-56
2021/12/31 06:23:28;;;;;;;11.50;8.50;;;;;;;7.60;81.30;100166.56;5091432;28;20302;-56
2021/12/31 06:25:56;;;;;;;13.50;9.43;;;;;;;7.53;81.53;100167.09;5090084;28;20193;-56
2021/12/31 06:28:23;;;;;;;12.57;9.40;;;;;;;7.57;81.56;100169.00;5098903;28;20212;-56
2021/12/31 06:30:50;;;;;;;10.20;8.17;;;;;;;7.54;81.58;100172.31;5089361;28;20182;-56
2021/12/31 06:33:17;;;;;;;13.83;9.00;;;;;;;7.60;81.67;100171.66;5089090;28;20231;-57
2021/12/31 06:35:44;;;;;;;9.50;8.50;;;;;;;7.65;81.56;100160.81;5089555;28;20183;-56
2021/12/31 06:38:11;;;;;;;18.57;9.03;;;;;;;7.63;81.46;100167.56;5088673;28;20186;-56
2021/12/31 06:40:39;;;;;;;10.57;9.17;;;;;;;7.66;81.45;100167.63;5088551;28;20194;-56
2021/12/31 06:43:06;;;;;;;10.00;7.73;;;;;;;7.93;80.64;100177.19;5089433;28;20220;-56
2021/12/31 06:45:33;;;;;;;11.68;10.10;;;;;;;7.92;79.89;100178.88;5089071;28;20432;-57
2021/12/31 06:48:00;;;;;;;10.60;8.07;;;;;;;7.93;79.90;100177.19;5089585;28;20199;-57
2021/12/31 06:50:27;;;;;;;9.53;7.83;;;;;;;7.93;79.80;100177.19;5089555;28;20678;-56
2021/12/31 06:52:54;;;;;;;10.27;7.50;;;;;;;7.88;80.24;100159.13;5089416;28;20290;-56
2021/12/31 06:55:21;;;;;;;9.68;7.57;;;;;;;8.22;79.49;100177.44;5089461;28;20585;-56
2021/12/31 06:57:50;;;;;;;9.80;8.00;;;;;;;8.75;77.20;100189.63;5089667;28;20557;-56
2021/12/31 07:00:18;;;;;;;8.83;7.13;;;;;;;8.89;76.09;100202.91;5089512;28;20190;-56
2021/12/31 07:02:45;;;;;;;9.03;6.50;;;;;;;8.86;75.29;100216.50;5091909;28;20573;-56
2021/12/31 07:05:12;;;;;;;8.67;7.37;;;;;;;8.78;75.46;100197.41;5093274;28;20183;-56
2021/12/31 07:07:39;;;;;;;8.93;7.10;;;;;;;8.66;75.82;100206.34;5093112;28;20564;-56
2021/12/31 07:10:07;;;;;;;12.93;7.17;;;;;;;8.60;75.29;100212.13;5093012;28;20289;-56
2021/12/31 07:12:34;;;;;;;8.90;7.43;;;;;;;8.58;75.96;100211.22;5093220;28;20186;-56
2021/12/31 07:15:02;;;;;;;8.80;7.70;;;;;;;8.86;75.47;100221.59;5093453;28;20194;-56
2021/12/31 07:17:29;;;;;;;8.73;7.27;;;;;;;8.84;74.98;100217.25;5097138;28;20220;-56
2021/12/31 07:19:57;;;;;;;8.63;7.60;;;;;;;8.85;75.20;100213.84;5104366;28;20201;-56
2021/12/31 07:22:25;;;;;;;9.73;7.10;;;;;;;8.76;75.41;100223.81;5113366;28;20942;-56
2021/12/31 07:24:52;;;;;;;10.10;7.83;;;;;;;8.73;75.64;100223.69;5113243;28;20992;-56
2021/12/31 07:27:18;;;;;;;8.40;7.13;;;;;;;8.81;75.71;100225.72;5113241;28;21004;-56
2021/12/31 07:29:45;;;;;;;7.53;6.33;;;;;;;8.86;74.32;100229.28;5104791;28;20264;-56
2021/12/31 07:32:14;;;;;;;8.33;7.03;;;;;;;8.90;74.79;100220.00;5092791;28;20202;-56
2021/12/31 07:34:40;;;;;;;12.50;8.40;;;;;;;8.99;74.42;100230.56;5092833;28;20257;-56
2021/12/31 07:37:07;;;;;;;8.97;7.20;;;;;;;8.97;74.53;100226.22;5093180;28;20232;-56
2021/12/31 07:39:35;;;;;;;9.07;7.27;;;;;;;8.97;74.63;100231.34;5093033;28;20586;-57
2021/12/31 07:42:02;;;;;;;7.87;7.00;;;;;;;9.00;74.54;100241.72;5092674;28;20658;-56
2021/12/31 07:44:29;;;;;;;9.23;7.60;;;;;;;9.08;74.56;100245.41;5092648;28;20281;-56
2021/12/31 07:46:56;;;;;;;7.83;6.83;;;;;;;9.15;73.05;100247.34;5092764;28;20182;-57
2021/12/31 07:49:25;;;;;;;6.60;5.90;;;;;;;9.17;71.88;100253.41;5091586;28;20709;-56
2021/12/31 07:51:51;;;;;;;8.00;6.80;;;;;;;9.17;72.04;100243.16;5092337;28;20184;-57
2021/12/31 07:54:18;;;;;;;8.07;6.97;;;;;;;9.10;72.29;100256.56;5091740;28;20198;-56
2021/12/31 07:56:45;;;;;;;7.77;6.93;;;;;;;9.12;72.10;100247.25;5091912;28;20221;-57
2021/12/31 07:59:12;;;;;;;10.77;7.50;;;;;;;9.21;72.14;100244.97;5091201;28;20436;-57
2021/12/31 08:01:39;;;;;;;11.40;7.90;;;;;;;9.36;72.15;100256.66;5091492;28;20203;-57
2021/12/31 08:04:06;;;;;;;11.57;8.43;;;;;;;9.43;71.46;100250.00;5092250;28;20550;-57
2021/12/31 08:06:34;;;;;;;9.33;7.73;;;;;;;9.46;71.27;100248.41;5092460;28;20182;-57
2021/12/31 08:09:01;;;;;;;10.90;7.73;;;;;;;9.57;71.08;100250.44;5091687;28;20214;-57
2021/12/31 08:11:28;;;;;;;11.17;7.67;;;;;;;9.72;70.51;100246.69;5091768;28;20676;-57
2021/12/31 08:13:55;;;;;;;8.93;7.43;;;;;;;9.70;70.76;100248.31;5091598;28;20215;-56
2021/12/31 08:16:22;;;;;;;10.30;9.03;;;;;;;9.74;70.94;100249.31;5091447;28;20281;-57
2021/12/31 08:18:49;;;;;;;8.37;6.97;;;;;;;9.63;70.69;100246.41;5091504;28;20203;-57
2021/12/31 08:21:16;;;;;;;8.93;7.70;;;;;;;9.71;70.99;100254.34;5092241;28;20202;-57
2021/12/31 08:23:44;;;;;;;7.80;6.90;;;;;;;9.82;70.75;100248.72;5091774;28;20592;-56
2021/12/31 08:26:11;;;;;;;10.03;7.60;;;;;;;9.96;70.13;100256.84;5092272;28;20209;-55
2021/12/31 08:28:38;;;;;;;8.90;6.90;;;;;;;10.02;69.87;100257.03;5091737;28;20218;-57
2021/12/31 08:31:05;;;;;;;9.23;7.63;;;;;;;10.15;69.58;100258.31;5091614;28;20191;-57
2021/12/31 08:33:32;;;;;;;9.53;7.23;;;;;;;10.23;69.41;100249.13;5091424;28;20234;-56
2021/12/31 08:35:59;;;;;;;10.43;7.10;;;;;;;10.19;68.82;100224.19;5091780;28;20201;-57
2021/12/31 08:38:26;;;;;;;8.87;7.57;;;;;;;10.44;67.91;100248.03;5090944;28;20187;-57
2021/12/31 08:40:57;;;;;;;11.80;7.77;;;;;;;10.52;68.12;100240.59;5090700;28;20193;-57
2021/12/31 08:43:24;;;;;;;10.90;7.90;;;;;;;10.59;68.18;100237.34;5090861;28;20235;-57
2021/12/31 08:45:51;;;;;;;10.17;7.37;;;;;;;10.58;67.40;100248.44;5090792;28;20291;-57
2021/12/31 08:48:18;;;;;;;10.77;7.13;;;;;;;10.65;67.36;100245.22;5090575;28;20293;-57
2021/12/31 08:50:45;;;;;;;10.73;8.02;;;;;;;10.70;66.57;100246.22;5089106;28;20436;-56
2021/12/31 08:53:13;;;;;;;11.13;8.17;;;;;;;10.85;66.63;100248.34;5091000;28;20294;-57
2021/12/31 08:55:40;;;;;;;10.17;7.37;;;;;;;10.86;66.34;100237.22;5090745;28;20657;-57
2021/12/31 08:58:08;;;;;;;7.57;6.73;;;;;;;10.91;66.15;100241.66;5090600;28;20281;-57
2021/12/31 09:00:36;;;;;;;8.03;7.20;;;;;;;10.99;66.23;100237.59;5090484;28;20190;-57
2021/12/31 09:03:04;;;;;;;7.00;6.30;;;;;;;11.04;64.66;100238.56;5090202;28;20187;-57
2021/12/31 09:05:33;;;;;;;9.87;6.67;;;;;;;10.87;64.72;100234.72;5090437;28;20658;-57
2021/12/31 09:07:59;;;;;;;8.60;6.30;;;;;;;10.89;65.35;100222.75;5090412;28;20207;-55
2021/12/31 09:10:27;;;;;;;6.50;5.80;;;;;;;10.94;65.69;100217.72;5090655;28;20198;-57
2021/12/31 09:12:54;;;;;;;8.13;6.23;;;;;;;11.07;64.70;100220.66;5091105;28;20195;-57
2021/12/31 09:15:22;;;;;;;7.53;5.97;;;;;;;11.00;64.84;100205.91;5091015;28;20217;-56
2021/12/31 09:17:49;;;;;;;11.03;6.50;;;;;;;11.00;65.24;100199.88;5090966;28;20194;-57
2021/12/31 09:20:17;;;;;;;10.10;6.70;;;;;;;11.07;64.89;100202.66;5090827;28;20191;-57
2021/12/31 09:22:45;;;;;;;8.83;6.83;;;;;;;11.10;65.13;100195.00;5090814;28;20638;-57
2021/12/31 09:25:12;;;;;;;7.30;6.37;;;;;;;11.12;64.97;100190.78;5090420;28;20259;-57
2021/12/31 09:27:39;;;;;;;6.90;6.00;;;;;;;11.06;65.08;100188.06;5090384;28;20195;-57
2021/12/31 09:30:08;;;;;;;8.13;6.67;;;;;;;11.05;64.97;100177.72;5090436;28;20665;-57
2021/12/31 09:32:37;;;;;;;8.10;5.83;;;;;;;11.14;64.76;100175.41;5090244;28;20645;-60
2021/12/31 09:35:06;;;;;;;6.03;5.43;;;;;;;11.22;65.04;100176.44;5090884;28;20190;-59
2021/12/31 09:37:33;;;;;;;8.33;6.23;;;;;;;11.22;64.81;100166.16;5089025;28;20603;-60
2021/12/31 09:40:00;;;;;;;6.47;5.43;;;;;;;11.20;64.48;100171.28;5088492;28;20634;-60
2021/12/31 09:42:27;;;;;;;7.27;5.10;;;;;;;11.18;64.20;100157.50;5088410;28;20195;-60
2021/12/31 09:44:54;;;;;;;6.80;5.70;;;;;;;11.14;64.71;100157.41;5087310;28;20221;-60
2021/12/31 09:47:20;;;;;;;7.57;6.30;;;;;;;11.22;64.76;100143.88;5087628;28;20194;-60
2021/12/31 09:49:50;;;;;;;8.40;6.53;;;;;;;11.34;64.92;100147.59;5087721;28;20280;-59
2021/12/31 09:52:19;;;;;;;7.50;6.40;;;;;;;11.37;64.59;100138.22;5088031;28;20274;-60
2021/12/31 09:54:48;;;;;;;5.87;5.20;;;;;;;11.41;64.18;100131.44;5088186;28;20623;-59
2021/12/31 09:57:15;;;;;;;15.80;5.73;;;;;;;11.40;63.46;100128.00;5088680;28;20197;-59
2021/12/31 09:59:42;;;;;;;7.57;6.27;;;;;;;11.44;64.17;100116.94;5089908;28;20194;-60
2021/12/31 10:02:10;;;;;;;8.50;6.60;;;;;;;11.65;63.90;100121.69;5089767;28;20212;-60
2021/12/31 10:04:55;;;;;;;9.30;6.53;;;;;;;11.77;63.60;100122.00;5089259;28;20190;-59
2021/12/31 10:07:24;;;;;;;7.00;5.95;;;;;;;11.79;63.39;100099.72;5089684;28;20867;-60
2021/12/31 10:10:22;;;;;;;8.07;5.53;;;;;;;11.91;61.83;100107.72;5089434;28;20242;-59
2021/12/31 10:12:52;;;;;;;5.37;4.87;;;;;;;11.88;61.41;100097.34;4988030;28;20194;-60
2021/12/31 10:15:21;;;;;;;5.67;4.90;;;;;;;11.75;60.93;100078.22;5069870;28;20622;-59
2021/12/31 10:17:48;;;;;;;5.20;4.43;;;;;;;12.02;60.99;100097.63;5089838;28;20190;-60
2021/12/31 10:20:17;;;;;;;5.53;4.80;;;;;;;12.16;60.75;100097.06;5089900;28;20187;-60
2021/12/31 10:22:45;;;;;;;7.60;5.50;;;;;;;12.38;60.29;100104.38;5089712;28;20194;-60
2021/12/31 10:25:21;;;;;;;5.67;4.97;;;;;;;12.29;60.08;100087.84;5089596;28;20277;-60
2021/12/31 10:27:50;;;;;;;5.70;4.90;;;;;;;12.30;59.14;100085.31;5089821;28;20187;-59
2021/12/31 10:30:22;;;;;;;9.57;5.90;;;;;;;12.37;59.99;100094.03;5089490;28;20305;-59
2021/12/31 10:32:49;;;;;;;6.37;5.47;;;;;;;12.36;59.68;100095.72;5089691;28;20333;-57
2021/12/31 10:35:21;;;;;;;6.77;5.20;;;;;;;12.46;59.76;100088.16;5089523;28;20199;-57
2021/12/31 10:37:50;;;;;;;7.93;5.37;;;;;;;12.21;60.08;100084.25;5091564;28;20202;-57
2021/12/31 10:40:28;;;;;;;6.97;5.23;;;;;;;12.20;60.32;100079.94;5093576;28;20183;-57
2021/12/31 10:43:07;;;;;;;7.73;6.47;;;;;;;12.23;61.22;100075.72;5093621;28;20199;-57
2021/12/31 10:45:34;;;;;;;9.43;5.77;;;;;;;12.21;61.66;100072.25;5093473;28;20182;-57
2021/12/31 10:48:06;;;;;;;7.57;6.70;;;;;;;12.23;61.52;100090.31;5093382;28;20190;-57
2021/12/31 10:50:37;;;;;;;8.43;6.30;;;;;;;12.26;61.12;100074.91;5092594;28;20206;-57
2021/12/31 10:53:09;;;;;;;8.13;6.53;;;;;;;12.05;61.01;100048.75;5092404;28;20249;-58
2021/12/31 10:55:39;;;;;;;6.53;5.63;;;;;;;12.28;60.41;100068.06;5093431;28;20684;-57
2021/12/31 10:58:10;;;;;;;6.70;5.87;;;;;;;12.12;61.39;100045.44;5090752;28;20190;-57
2021/12/31 11:00:39;;;;;;;7.73;6.77;;;;;;;12.21;61.88;100064.53;5095443;28;20273;-57
2021/12/31 11:03:07;;;;;;;9.63;7.20;;;;;;;12.28;62.31;100065.50;5089972;28;20539;-57
2021/12/31 11:05:36;;;;;;;8.97;6.83;;;;;;;12.31;62.38;100061.28;5094584;28;20194;-57
2021/12/31 11:08:05;;;;;;;9.87;6.57;;;;;;;12.31;63.09;100066.44;5094369;28;20221;-57
2021/12/31 11:10:35;;;;;;;8.27;6.50;;;;;;;12.38;62.56;100057.97;5092906;28;20199;-57
2021/12/31 11:13:09;;;;;;;5.87;5.13;;;;;;;12.36;61.50;100048.50;5093057;28;20179;-56
2021/12/31 11:15:36;;;;;;;4.63;4.13;;;;;;;12.34;61.75;100056.19;5092536;28;20190;-59
2021/12/31 11:18:05;;;;;;;6.57;4.63;;;;;;;12.30;61.63;100048.38;5106603;28;20434;-59
2021/12/31 11:20:33;;;;;;;6.37;4.83;;;;;;;12.24;61.88;100036.25;5095106;28;20191;-60
2021/12/31 11:23:01;;;;;;;5.03;4.50;;;;;;;12.52;61.47;100060.81;5102700;28;20194;-59
2021/12/31 11:25:29;;;;;;;6.97;4.73;;;;;;;12.55;59.89;100047.97;5092455;28;20187;-59
2021/12/31 11:27:57;;;;;;;6.63;4.50;;;;;;;12.58;60.12;100070.34;5092894;28;20447;-58
2021/12/31 11:30:31;;;;;;;6.07;4.70;;;;;;;12.53;60.98;100041.91;5092592;28;20219;-59
2021/12/31 11:33:06;;;;;;;13.17;5.00;;;;;;;12.47;60.41;100049.53;5092130;28;20245;-59